May City, Iowa
Current Conditions -  °F | °C
As of 5:53 AM on Thursday 18 Dec 2014 (Local Time) from KSPW Reporting Station
Overcast Overcast  
Wind Chill: 10°   Ceiling: 7500
Heat Index: 18°   Visibility: 10mi
Dew Point: 13°   Wind: 6mph
Humidity: 81%   Direction: 120°ESE
Pressure: 30.24"   Gusts: NA
Location:  43.32°N, 95.47°W
Report Text: KSPW 181153Z AUTO 12005KT 10SM OVC075 M08/M11 A3024 RMK AO2 SLP265 T10781106 11078 21106 55006 TSNO
Loading
Personal Weather Stations






























Interactive Weather Map New forecast layout! Learn more

10-Day Weather Forecast

Advertisements
Track Severe Weather on mobile